Time;durP1;ratioP1;P1;durP2;ratioP2;P2;SDS_P1;SDS_P2;PMS_P1;PMS_P2;Temp;Humidity;BMP_temperature;BMP_pressure;BME280_temperature;BME280_humidity;BME280_pressure;Samples;Min_cycle;Max_cycle;Signal;HPM_P1;HPM_P2
2023/05/15 00:01:13;;;;;;;;;;;;;;;14.81;98.85;99715.66;5094318;28;19915;-64
2023/05/15 00:03:38;;;;;;;;;;;;;;;14.81;99.16;99721.84;5095198;28;19920;-64
2023/05/15 00:06:04;;;;;;;;;;;;;;;14.74;99.09;99723.16;5094543;28;20011;-64
2023/05/15 00:08:29;;;;;;;;;;;;;;;14.65;99.53;99715.59;5095398;28;19916;-65
2023/05/15 00:10:55;;;;;;;;;;;;;;;14.62;99.56;99721.13;5094717;28;19958;-65
2023/05/15 00:13:20;;;;;;;;;;;;;;;14.66;99.48;99712.00;5093972;28;20344;-64
2023/05/15 00:15:45;;;;;;;;;;;;;;;14.77;100.00;99712.28;5094338;28;19912;-64
2023/05/15 00:18:11;;;;;;;;;;;;;;;14.84;98.77;99716.34;5082978;28;19927;-65
2023/05/15 00:20:36;;;;;;;;;;;;;;;14.85;99.23;99718.06;5079043;28;20435;-65
2023/05/15 00:23:01;;;;;;;;;;;;;;;14.85;98.27;99718.06;5092572;28;19974;-65
2023/05/15 00:25:26;;;;;;;;;;;;;;;14.81;97.99;99716.50;5092422;28;19916;-65
2023/05/15 00:27:52;;;;;;;;;;;;;;;14.80;97.82;99722.81;5092005;28;19967;-65
2023/05/15 00:30:17;;;;;;;;;;;;;;;14.77;97.47;99727.47;5092847;28;19955;-65
2023/05/15 00:32:42;;;;;;;;;;;;;;;14.70;97.68;99729.59;5092396;28;19920;-65
2023/05/15 00:35:08;;;;;;;;;;;;;;;14.60;96.71;99741.75;5092821;28;19920;-65
2023/05/15 00:37:33;;;;;;;;;;;;;;;14.46;96.78;99737.13;5091400;28;19912;-64
2023/05/15 00:39:58;;;;;;;;;;;;;;;14.36;97.09;99733.19;5092439;28;20301;-64
2023/05/15 00:42:23;;;;;;;;;;;;;;;14.31;97.36;99727.25;5091922;28;20535;-64
2023/05/15 00:44:51;;;;;;;;;;;;;;;14.36;97.78;99729.69;5092491;28;19924;-64
2023/05/15 00:47:17;;;;;;;;;;;;;;;14.36;98.48;99727.84;5092644;28;19923;-64
2023/05/15 00:49:43;;;;;;;;;;;;;;;14.39;99.27;99730.38;5092750;28;20390;-65
2023/05/15 00:52:08;;;;;;;;;;;;;;;14.43;99.16;99725.75;5093845;28;19916;-65
2023/05/15 00:54:34;;;;;;;;;;;;;;;14.50;99.17;99728.00;5092866;28;19916;-64
2023/05/15 00:57:00;;;;;;;;;;;;;;;14.56;99.73;99728.63;5094236;28;19967;-65
2023/05/15 00:59:29;;;;;;;;;;;;;;;14.52;99.31;99733.28;5092528;28;20386;-65
2023/05/15 01:01:54;;;;;;;;;;;;;;;14.52;99.07;99741.28;5090282;28;19924;-61
2023/05/15 01:04:20;;;;;;;;;;;;;;;14.58;99.07;99735.59;5091650;28;20315;-60
2023/05/15 01:06:45;;;;;;;;;;;;;;;14.60;98.73;99728.38;5091208;28;19912;-61
2023/05/15 01:09:11;;;;;;;;;;;;;;;14.52;98.30;99722.56;5091659;28;20372;-61
2023/05/15 01:11:37;;;;;;;;;;;;;;;14.45;99.61;99721.16;5091973;28;19912;-61
2023/05/15 01:14:04;;;;;;;;;;;;;;;14.38;99.30;99722.44;5091809;28;19951;-61
2023/05/15 01:16:30;;;;;;;;;;;;;;;14.45;99.76;99729.19;5090735;28;19923;-61
2023/05/15 01:18:56;;;;;;;;;;;;;;;14.46;99.78;99721.06;5091153;28;19920;-61
2023/05/15 01:21:39;;;;;;;;;;;;;;;14.47;99.08;99722.81;5089535;28;20399;-62
2023/05/15 01:24:05;;;;;;;;;;;;;;;14.52;99.19;99725.25;5090228;28;20466;-61
2023/05/15 01:26:39;;;;;;;;;;;;;;;14.57;99.29;99723.19;5090276;28;19912;-62
2023/05/15 01:29:11;;;;;;;;;;;;;;;14.57;98.39;99725.84;5084193;28;19940;-60
2023/05/15 01:31:37;;;;;;;;;;;;;;;14.56;98.40;99716.13;5088113;28;19966;-61
2023/05/15 01:34:05;;;;;;;;;;;;;;;14.57;97.90;99722.31;5080239;28;20657;-62
2023/05/15 01:36:34;;;;;;;;;;;;;;;14.43;97.89;99721.22;5070860;28;19923;-61
2023/05/15 01:39:01;;;;;;;;;;;;;;;14.24;98.73;99715.09;5073313;28;19961;-61
2023/05/15 01:41:40;;;;;;;;;;;;;;;14.24;98.49;99719.56;5091009;28;20484;-60
2023/05/15 01:44:10;;;;;;;;;;;;;;;14.30;98.97;99706.78;5071057;28;20473;-62
2023/05/15 01:46:37;;;;;;;;;;;;;;;14.32;98.73;99712.03;5090687;28;19926;-61
2023/05/15 01:49:02;;;;;;;;;;;;;;;14.35;98.38;99717.22;5089426;28;20017;-61
2023/05/15 01:51:29;;;;;;;;;;;;;;;14.26;97.74;99717.72;5077591;28;20353;-61
2023/05/15 01:53:57;;;;;;;;;;;;;;;14.19;97.93;99716.28;5074729;28;19916;-61
2023/05/15 01:56:23;;;;;;;;;;;;;;;14.13;98.97;99724.63;5089046;28;19923;-61
2023/05/15 01:58:50;;;;;;;;;;;;;;;14.01;99.22;99727.91;5070610;28;20011;-60
2023/05/15 02:01:16;;;;;;;;;;;;;;;13.99;99.22;99729.78;5086538;28;19997;-62
2023/05/15 02:03:42;;;;;;;;;;;;;;;13.92;100.00;99729.25;5090597;28;19923;-61
2023/05/15 02:06:08;;;;;;;;;;;;;;;13.99;100.00;99729.78;5089542;28;19920;-62
2023/05/15 02:08:33;;;;;;;;;;;;;;;14.02;100.00;99735.00;5090707;28;19916;-62
2023/05/15 02:11:00;;;;;;;;;;;;;;;14.02;99.10;99743.03;5090665;28;19912;-61
2023/05/15 02:13:25;;;;;;;;;;;;;;;13.94;99.05;99737.19;5089879;28;19920;-61
2023/05/15 02:15:51;;;;;;;;;;;;;;;13.90;99.51;99740.97;5080301;28;20176;-61
2023/05/15 02:18:16;;;;;;;;;;;;;;;13.83;100.00;99734.19;5079484;28;19920;-61
2023/05/15 02:20:42;;;;;;;;;;;;;;;13.96;100.00;99740.66;5089997;28;19920;-61
2023/05/15 02:23:07;;;;;;;;;;;;;;;14.02;100.00;99737.69;5090450;28;19920;-62
2023/05/15 02:25:48;;;;;;;;;;;;;;;14.12;100.00;99739.78;5089990;28;19927;-60
2023/05/15 02:28:19;;;;;;;;;;;;;;;14.20;100.00;99739.41;5089276;28;19955;-61
2023/05/15 02:30:54;;;;;;;;;;;;;;;14.26;99.70;99739.13;5090191;28;19950;-60
2023/05/15 02:33:22;;;;;;;;;;;;;;;14.27;98.98;99736.38;5089101;28;20294;-61
2023/05/15 02:35:51;;;;;;;;;;;;;;;14.26;98.88;99741.78;5090136;28;19957;-61
2023/05/15 02:38:19;;;;;;;;;;;;;;;14.18;99.00;99743.97;5087972;28;19991;-61
2023/05/15 02:40:45;;;;;;;;;;;;;;;14.13;98.21;99748.69;5088042;28;19935;-62
2023/05/15 02:43:12;;;;;;;;;;;;;;;14.06;98.75;99747.28;5087844;28;20002;-61
2023/05/15 02:45:38;;;;;;;;;;;;;;;14.06;98.48;99747.28;5088252;28;19923;-61
2023/05/15 02:48:04;;;;;;;;;;;;;;;14.06;98.45;99744.59;5088544;28;19920;-62
2023/05/15 02:50:29;;;;;;;;;;;;;;;14.00;98.81;99751.09;5088884;28;19935;-61
2023/05/15 02:53:01;;;;;;;;;;;;;;;13.93;98.38;99747.03;5088932;28;20454;-61
2023/05/15 02:55:27;;;;;;;;;;;;;;;13.88;98.40;99748.19;5089885;28;20007;-61
2023/05/15 02:57:52;;;;;;;;;;;;;;;13.79;98.81;99754.88;5089763;28;20031;-61
2023/05/15 03:00:17;;;;;;;;;;;;;;;13.73;98.33;99744.50;5089056;28;19919;-61
2023/05/15 03:02:43;;;;;;;;;;;;;;;13.63;98.34;99745.00;5090031;28;20345;-61
2023/05/15 03:05:08;;;;;;;;;;;;;;;13.59;98.78;99735.44;5088878;28;19927;-61
2023/05/15 03:07:34;;;;;;;;;;;;;;;13.60;98.97;99742.50;5089994;28;19942;-61
2023/05/15 03:09:59;;;;;;;;;;;;;;;13.57;98.59;99748.00;5090275;28;19916;-61
2023/05/15 03:12:25;;;;;;;;;;;;;;;13.53;98.80;99741.03;5088796;28;19984;-61
2023/05/15 03:15:21;;;;;;;;;;;;;;;13.48;99.21;99732.38;5089548;28;19924;-60
2023/05/15 03:17:46;;;;;;;;;;;;;;;13.44;98.85;99738.84;5074510;28;19927;-61
2023/05/15 03:20:13;;;;;;;;;;;;;;;13.41;98.88;99742.50;5089544;28;19920;-61
2023/05/15 03:22:38;;;;;;;;;;;;;;;13.40;99.91;99743.47;5089422;28;19988;-62
2023/05/15 03:25:04;;;;;;;;;;;;;;;13.42;99.80;99741.59;5089801;28;19916;-61
2023/05/15 03:27:29;;;;;;;;;;;;;;;13.42;99.63;99738.91;5088794;28;19920;-61
2023/05/15 03:29:55;;;;;;;;;;;;;;;13.45;100.00;99737.88;5089707;28;19916;-62
2023/05/15 03:32:20;;;;;;;;;;;;;;;13.46;99.72;99737.81;5073926;28;19917;-61
2023/05/15 03:34:45;;;;;;;;;;;;;;;13.49;100.00;99744.81;5089298;28;19923;-61
2023/05/15 03:37:10;;;;;;;;;;;;;;;13.48;100.00;99743.94;5088119;28;20011;-61
2023/05/15 03:39:36;;;;;;;;;;;;;;;13.49;100.00;99747.50;5089618;28;19951;-61
2023/05/15 03:42:01;;;;;;;;;;;;;;;13.57;100.00;99753.34;5087269;28;20287;-61
2023/05/15 03:44:27;;;;;;;;;;;;;;;13.63;100.00;99747.69;5089447;28;19923;-61
2023/05/15 03:46:52;;;;;;;;;;;;;;;13.64;100.00;99744.09;5088382;28;20024;-61
2023/05/15 03:49:17;;;;;;;;;;;;;;;13.65;100.00;99744.00;5089611;28;19977;-61
2023/05/15 03:51:42;;;;;;;;;;;;;;;13.70;100.00;99750.00;5088015;28;19920;-61
2023/05/15 03:54:08;;;;;;;;;;;;;;;13.72;100.00;99747.25;5089072;28;19916;-61
2023/05/15 03:56:33;;;;;;;;;;;;;;;13.74;100.00;99737.34;5087475;28;19935;-60
2023/05/15 03:58:58;;;;;;;;;;;;;;;13.79;100.00;99743.31;5085717;28;20008;-60
2023/05/15 04:01:24;;;;;;;;;;;;;;;13.80;99.86;99739.69;5085627;28;20360;-60
2023/05/15 04:03:49;;;;;;;;;;;;;;;13.81;99.54;99741.41;5085268;28;19916;-60
2023/05/15 04:06:15;;;;;;;;;;;;;;;13.83;99.54;99739.53;5087791;28;19927;-60
2023/05/15 04:08:40;;;;;;;;;;;;;;;13.80;99.51;99739.69;5088935;28;20336;-61
2023/05/15 04:11:05;;;;;;;;;;;;;;;13.84;99.76;99742.13;5089329;28;20489;-61
2023/05/15 04:13:31;;;;;;;;;;;;;;;13.83;99.67;99734.19;5091607;28;19923;-61
2023/05/15 04:15:56;;;;;;;;;;;;;;;13.87;100.00;99739.31;5092597;28;20391;-61
2023/05/15 04:18:22;;;;;;;;;;;;;;;13.90;99.88;99735.63;5092216;28;19916;-62
2023/05/15 04:20:47;;;;;;;;;;;;;;;13.94;99.81;99738.06;5082638;28;20291;-61
2023/05/15 04:23:12;;;;;;;;;;;;;;;13.98;99.37;99738.78;5090213;28;19924;-61
2023/05/15 04:25:38;;;;;;;;;;;;;;;13.97;99.05;99739.72;5091616;28;19920;-61
2023/05/15 04:28:03;;;;;;;;;;;;;;;14.00;99.31;99737.72;5091313;28;19923;-61
2023/05/15 04:30:29;;;;;;;;;;;;;;;14.05;98.62;99737.53;5091101;28;19916;-60
2023/05/15 04:32:54;;;;;;;;;;;;;;;14.08;98.39;99738.25;5090290;28;19912;-61
2023/05/15 04:35:20;;;;;;;;;;;;;;;14.12;99.26;99741.59;5091870;28;19927;-61
2023/05/15 04:37:45;;;;;;;;;;;;;;;14.11;99.09;99735.41;5092262;28;20328;-61
2023/05/15 04:40:13;;;;;;;;;;;;;;;14.15;98.70;99742.31;5092337;28;19916;-61
2023/05/15 04:42:38;;;;;;;;;;;;;;;14.17;98.99;99739.56;5091360;28;20291;-61
2023/05/15 04:45:04;;;;;;;;;;;;;;;14.21;98.81;99733.09;5091920;28;19916;-62
2023/05/15 04:47:29;;;;;;;;;;;;;;;14.27;98.32;99735.50;5091814;28;20298;-61
2023/05/15 04:49:55;;;;;;;;;;;;;;;14.33;98.96;99743.22;5091950;28;19912;-61
2023/05/15 04:52:20;;;;;;;;;;;;;;;14.33;98.01;99745.91;5088975;28;19919;-61
2023/05/15 04:54:46;;;;;;;;;;;;;;;14.27;98.34;99749.75;5092203;28;19916;-61
2023/05/15 04:57:12;;;;;;;;;;;;;;;14.28;98.11;99754.13;5091125;28;20014;-60
2023/05/15 04:59:37;;;;;;;;;;;;;;;14.38;98.41;99749.19;5091801;28;20031;-62
2023/05/15 05:02:02;;;;;;;;;;;;;;;14.42;98.12;99748.06;5091160;28;19924;-60
2023/05/15 05:04:28;;;;;;;;;;;;;;;14.46;98.03;99741.63;5091916;28;19927;-60
2023/05/15 05:06:53;;;;;;;;;;;;;;;14.48;97.31;99748.63;5092018;28;20311;-61
2023/05/15 05:09:19;;;;;;;;;;;;;;;14.58;97.56;99740.13;5092035;28;19923;-61
2023/05/15 05:11:44;;;;;;;;;;;;;;;14.67;97.49;99737.81;5090653;28;20380;-61
2023/05/15 05:14:10;;;;;;;;;;;;;;;14.77;96.84;99732.81;5091528;28;19920;-61
2023/05/15 05:16:35;;;;;;;;;;;;;;;14.88;96.61;99750.03;5090377;28;19920;-60
2023/05/15 05:19:01;;;;;;;;;;;;;;;14.97;96.46;99744.19;5091695;28;19944;-60
2023/05/15 05:21:26;;;;;;;;;;;;;;;14.90;95.42;99748.16;5091349;28;20014;-60
2023/05/15 05:23:51;;;;;;;;;;;;;;;14.92;95.47;99751.59;5091256;28;20455;-61
2023/05/15 05:26:17;;;;;;;;;;;;;;;14.91;95.21;99743.66;5090303;28;19963;-61
2023/05/15 05:28:42;;;;;;;;;;;;;;;15.03;94.96;99749.19;5090957;28;19912;-62
2023/05/15 05:31:07;;;;;;;;;;;;;;;15.17;95.44;99757.31;5091513;28;20770;-62
2023/05/15 05:33:33;;;;;;;;;;;;;;;15.28;94.12;99760.31;5086445;28;19916;-61
2023/05/15 05:35:58;;;;;;;;;;;;;;;15.38;94.65;99761.53;5088437;28;19920;-61
2023/05/15 05:38:25;;;;;;;;;;;;;;;15.53;93.63;99755.31;5085370;28;19945;-60
2023/05/15 05:40:50;;;;;;;;;;;;;;;15.58;93.74;99758.59;5091365;28;20485;-61
2023/05/15 05:43:15;;;;;;;;;;;;;;;15.61;92.07;99752.19;5090629;28;19923;-61
2023/05/15 05:45:41;;;;;;;;;;;;;;;15.65;91.69;99759.97;5089960;28;20049;-61
2023/05/15 05:48:06;;;;;;;;;;;;;;;15.86;91.54;99757.00;5089387;28;19916;-61
2023/05/15 05:50:31;;;;;;;;;;;;;;;16.00;91.13;99757.06;5090232;28;19916;-61
2023/05/15 05:52:57;;;;;;;;;;;;;;;16.05;89.76;99765.69;5090534;28;19912;-61
2023/05/15 05:55:22;;;;;;;;;;;;;;;16.21;89.36;99769.22;5089754;28;20379;-61
2023/05/15 05:57:47;;;;;;;;;;;;;;;16.22;88.58;99760.22;5084141;28;19951;-60
2023/05/15 06:00:13;;;;;;;;;;;;;;;16.28;88.83;99755.34;5051809;28;19917;-60
2023/05/15 06:02:38;;;;;;;;;;;;;;;16.42;88.77;99757.22;5082375;28;20531;-60
2023/05/15 06:05:05;;;;;;;;;;;;;;;16.56;88.50;99754.56;5090616;28;20382;-61
2023/05/15 06:07:30;;;;;;;;;;;;;;;16.67;87.68;99761.00;5090644;28;20003;-62
2023/05/15 06:09:55;;;;;;;;;;;;;;;16.60;86.20;99762.38;5090949;28;20011;-61
2023/05/15 06:12:21;;;;;;;;;;;;;;;16.78;86.96;99760.38;5089492;28;20035;-61
2023/05/15 06:14:46;;;;;;;;;;;;;;;16.88;87.01;99764.22;5088476;28;19920;-62
2023/05/15 06:17:12;;;;;;;;;;;;;;;17.03;86.35;99772.16;5079894;28;19919;-62
2023/05/15 06:19:37;;;;;;;;;;;;;;;17.12;85.48;99759.97;5089437;28;19916;-62
2023/05/15 06:22:02;;;;;;;;;;;;;;;17.28;85.16;99760.72;5089472;28;19942;-61
2023/05/15 06:24:28;;;;;;;;;;;;;;;17.32;84.94;99764.94;5089225;28;19963;-61
2023/05/15 06:26:53;;;;;;;;;;;;;;;17.31;83.58;99765.06;5081660;28;20010;-61
2023/05/15 06:29:18;;;;;;;;;;;;;;;17.46;82.13;99769.47;5090223;28;19966;-61
2023/05/15 06:31:43;;;;;;;;;;;;;;;17.41;81.99;99767.06;5075788;28;19940;-61
2023/05/15 06:34:09;;;;;;;;;;;;;;;17.56;82.60;99768.78;5070117;28;19923;-61
2023/05/15 06:36:34;;;;;;;;;;;;;;;17.85;81.65;99762.38;5085621;28;19916;-60
2023/05/15 06:38:59;;;;;;;;;;;;;;;18.17;81.09;99768.28;5090356;28;19970;-61
2023/05/15 06:41:25;;;;;;;;;;;;;;;18.41;78.29;99768.47;5090002;28;19920;-60
2023/05/15 06:43:50;;;;;;;;;;;;;;;18.50;77.05;99770.56;5089493;28;19927;-62
2023/05/15 06:46:17;;;;;;;;;;;;;;;18.43;74.99;99770.13;5079371;28;19961;-61
2023/05/15 06:48:43;;;;;;;;;;;;;;;18.43;75.29;99769.25;5070229;28;19916;-61
2023/05/15 06:51:08;;;;;;;;;;;;;;;18.35;75.88;99767.88;5085887;28;19927;-60
2023/05/15 06:53:33;;;;;;;;;;;;;;;18.54;75.76;99769.34;5089558;28;20303;-61
2023/05/15 06:55:59;;;;;;;;;;;;;;;18.64;76.09;99767.75;5089968;28;19916;-61
2023/05/15 06:58:24;;;;;;;;;;;;;;;18.57;74.22;99771.84;5088733;28;19973;-61
2023/05/15 07:00:50;;;;;;;;;;;;;;;18.56;75.05;99770.13;5069981;28;20226;-61
2023/05/15 07:03:15;;;;;;;;;;;;;;;18.56;75.24;99772.81;5069873;28;19940;-60
2023/05/15 07:05:41;;;;;;;;;;;;;;;18.70;74.63;99764.66;5068434;28;19935;-60
2023/05/15 07:08:06;;;;;;;;;;;;;;;18.78;74.39;99770.38;5068683;28;19920;-61
2023/05/15 07:10:31;;;;;;;;;;;;;;;18.96;73.57;99774.47;5067408;28;19924;-62
2023/05/15 07:12:57;;;;;;;;;;;;;;;18.85;72.43;99775.22;5068697;28;19921;-61
2023/05/15 07:15:22;;;;;;;;;;;;;;;18.62;73.09;99770.56;5080019;28;20007;-62
2023/05/15 07:17:47;;;;;;;;;;;;;;;18.66;73.36;99771.22;5079029;28;19927;-61
2023/05/15 07:20:12;;;;;;;;;;;;;;;18.99;74.33;99774.25;5073250;28;19921;-61
2023/05/15 07:22:38;;;;;;;;;;;;;;;19.20;72.72;99767.31;5048730;28;20483;-61
2023/05/15 07:25:04;;;;;;;;;;;;;;;19.26;71.82;99769.56;5049463;28;19916;-61
2023/05/15 07:27:29;;;;;;;;;;;;;;;19.55;71.40;99762.97;5058952;28;19916;-62
2023/05/15 07:29:54;;;;;;;;;;;;;;;19.79;70.30;99765.69;5069801;28;19917;-61
2023/05/15 07:32:20;;;;;;;;;;;;;;;19.71;69.46;99760.88;5067353;28;19916;-61
2023/05/15 07:34:45;;;;;;;;;;;;;;;19.90;69.25;99766.63;5065229;28;19916;-61
2023/05/15 07:37:10;;;;;;;;;;;;;;;20.07;68.88;99768.91;5069445;28;19912;-61
2023/05/15 07:39:36;;;;;;;;;;;;;;;20.10;68.33;99765.97;5068743;28;19919;-61
2023/05/15 07:42:01;;;;;;;;;;;;;;;20.11;69.83;99765.03;5069578;28;20364;-60
2023/05/15 07:44:26;;;;;;;;;;;;;;;20.20;68.12;99767.03;5070870;28;20315;-61
2023/05/15 07:46:53;;;;;;;;;;;;;;;20.59;67.30;99774.78;5069883;28;19916;-62
2023/05/15 07:49:19;;;;;;;;;;;;;;;20.98;66.03;99770.88;5072420;28;20006;-61
2023/05/15 07:51:44;;;;;;;;;;;;;;;21.08;64.38;99766.47;5057712;28;20015;-60
2023/05/15 07:54:09;;;;;;;;;;;;;;;20.91;63.17;99759.66;5060090;28;19993;-62
2023/05/15 07:56:35;;;;;;;;;;;;;;;20.67;62.74;99764.25;5072399;28;19920;-61
2023/05/15 07:59:00;;;;;;;;;;;;;;;21.09;64.02;99761.91;5085087;28;20704;-61
2023/05/15 08:01:25;;;;;;;;;;;;;;;21.45;63.05;99764.38;5090650;28;19916;-61
2023/05/15 08:03:50;;;;;;;;;;;;;;;21.98;60.55;99752.72;5092259;28;19924;-61
2023/05/15 08:06:16;;;;;;;;;;;;;;;22.77;59.23;99752.25;5078836;28;19919;-61
2023/05/15 08:08:41;;;;;;;;;;;;;;;23.07;56.46;99753.16;5092493;28;19955;-61
2023/05/15 08:11:06;;;;;;;;;;;;;;;23.42;55.42;99756.38;5093187;28;20295;-60
2023/05/15 08:13:31;;;;;;;;;;;;;;;23.65;54.45;99757.00;5092936;28;19916;-62
2023/05/15 08:15:57;;;;;;;;;;;;;;;23.79;55.07;99758.47;5090739;28;19927;-61
2023/05/15 08:18:22;;;;;;;;;;;;;;;24.48;52.63;99749.28;5091649;28;20446;-62
2023/05/15 08:20:48;;;;;;;;;;;;;;;24.47;50.68;99756.56;5089320;28;19917;-62
2023/05/15 08:23:13;;;;;;;;;;;;;;;24.39;50.40;99759.16;5089476;28;20376;-61
2023/05/15 08:25:38;;;;;;;;;;;;;;;24.73;49.52;99756.84;5090969;28;19927;-61
2023/05/15 08:28:04;;;;;;;;;;;;;;;24.97;49.90;99749.09;5091321;28;19955;-61
2023/05/15 08:30:29;;;;;;;;;;;;;;;25.22;47.84;99751.13;5092209;28;19943;-61
2023/05/15 08:32:55;;;;;;;;;;;;;;;25.28;46.69;99752.41;5092254;28;19950;-61
2023/05/15 08:35:20;;;;;;;;;;;;;;;25.29;47.74;99752.25;5090586;28;19923;-62
2023/05/15 08:37:45;;;;;;;;;;;;;;;25.41;47.06;99752.97;5091492;28;19920;-62
2023/05/15 08:40:11;;;;;;;;;;;;;;;25.43;46.30;99754.53;5089270;28;19916;-61
2023/05/15 08:42:39;;;;;;;;;;;;;;;25.83;46.73;99749.59;5091046;28;19927;-61
2023/05/15 08:45:05;;;;;;;;;;;;;;;26.22;46.66;99749.34;5090632;28;19920;-61
2023/05/15 08:47:33;;;;;;;;;;;;;;;26.72;44.38;99742.34;5091240;28;19989;-61
2023/05/15 08:50:05;;;;;;;;;;;;;;;27.05;43.14;99747.03;5092152;28;20034;-62
2023/05/15 08:52:33;;;;;;;;;;;;;;;26.76;43.87;99746.47;5092313;28;20291;-61
2023/05/15 08:54:59;;;;;;;;;;;;;;;26.68;43.78;99739.09;5091423;28;19923;-62
2023/05/15 08:57:26;;;;;;;;;;;;;;;26.97;43.87;99733.31;5091169;28;20374;-61
2023/05/15 08:59:52;;;;;;;;;;;;;;;26.94;44.65;99736.34;5074262;28;19924;-62
2023/05/15 09:02:18;;;;;;;;;;;;;;;27.10;44.18;99731.88;5070016;28;19932;-61
2023/05/15 09:04:43;;;;;;;;;;;;;;;27.07;42.74;99729.47;5070905;28;19970;-61
2023/05/15 09:07:10;;;;;;;;;;;;;;;26.96;42.96;99729.75;5077977;28;19917;-61
2023/05/15 09:09:36;;;;;;;;;;;;;;;27.27;43.05;99732.81;5070255;28;19923;-61
2023/05/15 09:12:02;;;;;;;;;;;;;;;27.17;42.67;99723.88;5070574;28;19916;-61
2023/05/15 09:14:28;;;;;;;;;;;;;;;27.22;44.69;99729.72;5069319;28;19927;-62
2023/05/15 09:16:53;;;;;;;;;;;;;;;27.51;42.59;99730.25;5069677;28;20336;-62
2023/05/15 09:19:20;;;;;;;;;;;;;;;27.76;42.32;99728.47;5069963;28;19913;-62
2023/05/15 09:21:45;;;;;;;;;;;;;;;27.54;42.14;99723.59;5056762;28;20625;-61
2023/05/15 09:24:18;;;;;;;;;;;;;;;27.75;42.20;99729.47;5069358;28;19921;-61
2023/05/15 09:26:45;;;;;;;;;;;;;;;27.70;41.01;99720.91;5069346;28;19920;-61
2023/05/15 09:29:10;;;;;;;;;;;;;;;27.68;41.96;99717.47;5069986;28;19939;-61
2023/05/15 09:31:36;;;;;;;;;;;;;;;27.57;40.39;99707.72;5070434;28;19920;-61
2023/05/15 09:34:03;;;;;;;;;;;;;;;27.26;39.80;99709.25;5080264;28;20599;-61
2023/05/15 09:36:29;;;;;;;;;;;;;;;27.51;41.43;99713.88;5053452;28;20045;-61
2023/05/15 09:38:58;;;;;;;;;;;;;;;27.73;41.36;99710.50;5070146;28;20343;-61
2023/05/15 09:41:24;;;;;;;;;;;;;;;27.59;40.98;99711.16;5070047;28;20003;-61
2023/05/15 09:43:50;;;;;;;;;;;;;;;27.94;39.95;99705.47;5051090;28;20088;-60
2023/05/15 09:46:16;;;;;;;;;;;;;;;27.92;40.41;99704.81;5069971;28;19913;-61
2023/05/15 09:48:41;;;;;;;;;;;;;;;27.98;38.92;99701.38;5068982;28;19916;-61
2023/05/15 09:51:14;;;;;;;;;;;;;;;28.19;41.02;99689.94;5062448;28;19957;-60
2023/05/15 09:53:39;;;;;;;;;;;;;;;28.53;39.47;99684.38;5053726;28;19926;-61
2023/05/15 09:56:05;;;;;;;;;;;;;;;28.08;39.02;99685.69;5070480;28;20033;-60
2023/05/15 09:58:30;;;;;;;;;;;;;;;27.98;39.22;99676.78;5080464;28;20418;-60
2023/05/15 10:00:58;;;;;;;;;;;;;;;27.67;38.90;99678.38;5084213;28;19985;-60
2023/05/15 10:03:23;;;;;;;;;;;;;;;27.65;38.39;99680.41;5070455;28;19957;-60
2023/05/15 10:05:57;;;;;;;;;;;;;;;27.67;39.60;99675.66;5075119;28;20188;-60
2023/05/15 10:08:27;;;;;;;;;;;;;;;27.75;39.71;99672.94;5090306;28;19923;-61
2023/05/15 10:10:53;;;;;;;;;;;;;;;28.27;38.24;99679.03;5089853;28;19923;-60
2023/05/15 10:13:19;;;;;;;;;;;;;;;28.41;37.00;99676.47;5090015;28;19920;-61
2023/05/15 10:15:48;;;;;;;;;;;;;;;28.37;37.22;99677.81;5090715;28;20455;-60
2023/05/15 10:18:16;;;;;;;;;;;;;;;28.66;37.31;99660.06;5090515;28;19912;-61
2023/05/15 10:20:41;;;;;;;;;;;;;;;28.45;37.30;99672.34;5089497;28;19918;-60
2023/05/15 10:23:09;;;;;;;;;;;;;;;27.98;36.48;99673.19;5087090;28;19920;-60
2023/05/15 10:25:40;;;;;;;;;;;;;;;28.23;38.25;99666.72;5090203;28;20348;-60
2023/05/15 10:28:09;;;;;;;;;;;;;;;28.32;37.05;99665.69;5089117;28;19926;-60
2023/05/15 10:30:35;;;;;;;;;;;;;;;28.77;36.07;99659.69;5090386;28;20314;-60
2023/05/15 10:33:03;;;;;;;;;;;;;;;28.58;38.28;99652.72;5089981;28;19916;-60
2023/05/15 10:35:29;;;;;;;;;;;;;;;29.10;37.02;99650.41;5089632;28;19922;-60
2023/05/15 10:37:55;;;;;;;;;;;;;;;29.44;35.03;99646.31;5089311;28;19920;-59
2023/05/15 10:40:20;;;;;;;;;;;;;;;29.65;36.36;99646.56;5090228;28;19918;-60
2023/05/15 10:42:46;;;;;;;;;;;;;;;29.90;34.96;99641.78;5089115;28;19924;-60
2023/05/15 10:45:11;;;;;;;;;;;;;;;29.72;34.00;99652.19;5090102;28;19919;-60
2023/05/15 10:47:37;;;;;;;;;;;;;;;28.52;35.91;99627.94;5089977;28;19919;-60
2023/05/15 10:50:03;;;;;;;;;;;;;;;28.35;37.34;99632.53;5089865;28;19912;-61
2023/05/15 10:52:30;;;;;;;;;;;;;;;28.86;35.58;99620.31;5088993;28;19961;-59
2023/05/15 10:54:55;;;;;;;;;;;;;;;29.55;36.62;99618.53;5089901;28;19963;-60
2023/05/15 10:57:21;;;;;;;;;;;;;;;30.13;35.50;99619.88;5089012;28;19991;-61
2023/05/15 10:59:46;;;;;;;;;;;;;;;30.21;32.88;99617.91;5089438;28;20431;-61
2023/05/15 11:02:18;;;;;;;;;;;;;;;29.77;34.84;99616.84;5088398;28;20355;-61
2023/05/15 11:04:43;;;;;;;;;;;;;;;29.43;35.67;99619.09;5088435;28;19924;-60
2023/05/15 11:07:15;;;;;;;;;;;;;;;28.17;35.60;99626.38;5088984;28;20247;-59
2023/05/15 11:09:41;;;;;;;;;;;;;;;27.85;37.52;99618.09;5088377;28;19991;-60
2023/05/15 11:12:07;;;;;;;;;;;;;;;26.79;36.96;99623.31;5087971;28;20019;-60
2023/05/15 11:14:34;;;;;;;;;;;;;;;26.42;39.72;99625.44;5089169;28;19916;-60
2023/05/15 11:17:02;;;;;;;;;;;;;;;26.12;40.06;99623.16;5088913;28;19920;-60
2023/05/15 11:19:27;;;;;;;;;;;;;;;25.83;41.46;99620.66;5089750;28;19973;-60
2023/05/15 11:22:08;;;;;;;;;;;;;;;25.71;42.35;99636.38;5092121;28;19920;-60
2023/05/15 11:24:51;;;;;;;;;;;;;;;25.43;45.23;99658.34;5092998;28;19931;-60
2023/05/15 11:27:28;;;;;;;;;;;;;;;24.55;46.44;99660.66;5093579;28;19912;-59
2023/05/15 11:30:02;;;;;;;;;;;;;;;23.34;52.41;99671.16;5078533;28;19952;-60
2023/05/15 11:32:40;;;;;;;;;;;;;;;22.32;59.72;99685.72;5080525;28;20335;-59
2023/05/15 11:35:26;;;;;;;;;;;;;;;21.40;63.57;99682.69;5087516;28;19920;-60
2023/05/15 11:38:00;;;;;;;;;;;;;;;20.76;67.99;99701.38;5058724;28;19948;-59
2023/05/15 11:40:26;;;;;;;;;;;;;;;20.37;69.93;99709.91;5088182;28;19931;-60
2023/05/15 11:42:59;;;;;;;;;;;;;;;20.05;72.16;99713.31;5083627;28;19962;-60
2023/05/15 11:45:25;;;;;;;;;;;;;;;19.61;71.69;99717.50;5082362;28;20302;-59
2023/05/15 11:47:50;;;;;;;;;;;;;;;19.28;74.57;99697.50;5092807;28;19920;-59
2023/05/15 11:50:16;;;;;;;;;;;;;;;18.92;76.77;99698.34;5090447;28;19916;-59
2023/05/15 11:52:42;;;;;;;;;;;;;;;18.99;78.39;99677.19;5079898;28;20185;-58
2023/05/15 11:55:08;;;;;;;;;;;;;;;18.93;73.11;99674.97;5077361;28;20551;-59
2023/05/15 11:57:33;;;;;;;;;;;;;;;18.83;75.27;99668.50;5088931;28;19920;-59
2023/05/15 11:59:58;;;;;;;;;;;;;;;19.00;77.47;99662.75;5088405;28;19930;-59
2023/05/15 12:02:23;;;;;;;;;;;;;;;18.91;74.43;99652.63;5086982;28;19944;-59
2023/05/15 12:04:50;;;;;;;;;;;;;;;18.92;74.66;99648.97;5083458;28;20329;-59
2023/05/15 12:07:16;;;;;;;;;;;;;;;18.85;72.29;99636.88;5076715;28;20004;-58
2023/05/15 12:09:42;;;;;;;;;;;;;;;18.78;72.41;99631.06;5085140;28;19996;-58
2023/05/15 12:12:12;;;;;;;;;;;;;;;19.02;75.37;99633.84;5083262;28;19926;-58
2023/05/15 12:14:38;;;;;;;;;;;;;;;19.19;71.31;99631.63;5085719;28;20365;-58
2023/05/15 12:17:03;;;;;;;;;;;;;;;19.45;72.98;99627.91;5075304;28;19950;-59
2023/05/15 12:19:33;;;;;;;;;;;;;;;19.93;75.97;99626.03;5073828;28;19920;-58
2023/05/15 12:21:58;;;;;;;;;;;;;;;19.94;67.16;99618.75;5078148;28;20657;-57
2023/05/15 12:24:25;;;;;;;;;;;;;;;20.22;70.28;99619.25;5074657;28;19924;-58
2023/05/15 12:26:50;;;;;;;;;;;;;;;20.26;65.19;99625.28;5079380;28;19954;-58
2023/05/15 12:29:16;;;;;;;;;;;;;;;19.88;68.04;99628.22;5079045;28;19916;-58
2023/05/15 12:31:41;;;;;;;;;;;;;;;19.93;73.52;99617.91;5087366;28;19920;-59
2023/05/15 12:34:08;;;;;;;;;;;;;;;19.90;68.44;99617.28;5090595;28;19945;-58
2023/05/15 12:36:33;;;;;;;;;;;;;;;19.81;69.67;99620.69;5090545;28;19940;-58
2023/05/15 12:39:03;;;;;;;;;;;;;;;19.64;71.18;99619.25;5090921;28;20558;-59
2023/05/15 12:41:29;;;;;;;;;;;;;;;19.65;71.34;99613.75;5089696;28;19920;-59